Time;durP1;ratioP1;P1;durP2;ratioP2;P2;SDS_P1;SDS_P2;PMS_P1;PMS_P2;Temp;Humidity;BMP_temperature;BMP_pressure;BME280_temperature;BME280_humidity;BME280_pressure;Samples;Min_cycle;Max_cycle;Signal;HPM_P1;HPM_P2
2022/02/28 00:02:06;;;;;;;2.60;1.40;;;;;;;5.04;44.03;101573.98;117347;1183;21840;-57
2022/02/28 00:04:34;;;;;;;3.50;1.30;;;;;;;5.03;43.98;101568.03;117280;1188;21858;-57
2022/02/28 00:07:03;;;;;;;3.60;1.70;;;;;;;5.00;43.97;101566.75;117348;1182;23456;-53
2022/02/28 00:09:31;;;;;;;2.70;1.50;;;;;;;5.01;44.14;101562.92;117235;1182;23469;-53
2022/02/28 00:11:59;;;;;;;3.20;1.10;;;;;;;5.00;44.08;101558.05;117287;1182;21846;-57
2022/02/28 00:14:30;;;;;;;4.10;1.40;;;;;;;4.98;44.14;101558.48;117310;1186;23082;-53
2022/02/28 00:16:59;;;;;;;2.40;1.30;;;;;;;4.97;44.09;101555.50;117327;1182;23451;-57
2022/02/28 00:19:33;;;;;;;3.60;1.70;;;;;;;4.98;44.16;101557.95;117317;1183;21987;-53
2022/02/28 00:22:01;;;;;;;3.70;1.60;;;;;;;4.95;44.00;101547.45;117350;1182;23005;-53
2022/02/28 00:24:31;;;;;;;3.10;1.30;;;;;;;4.89;43.90;101544.48;117297;1185;22828;-57
2022/02/28 00:27:02;;;;;;;3.80;1.50;;;;;;;4.85;44.35;101543.33;117290;1183;22817;-57
2022/02/28 00:29:30;;;;;;;3.00;1.20;;;;;;;4.84;44.34;101540.19;117380;1186;22998;-54
2022/02/28 00:31:58;;;;;;;2.90;1.40;;;;;;;4.83;44.27;101536.33;117238;1185;24148;-53
2022/02/28 00:34:27;;;;;;;3.50;1.30;;;;;;;4.83;44.37;101533.20;117311;1183;23456;-57
2022/02/28 00:36:56;;;;;;;5.00;1.40;;;;;;;4.81;44.15;101530.50;117298;1179;21866;-57
2022/02/28 00:39:24;;;;;;;5.80;1.50;;;;;;;4.79;44.26;101529.76;117313;1182;21858;-57
2022/02/28 00:41:53;;;;;;;4.80;1.30;;;;;;;4.80;44.36;101528.92;117377;1182;21925;-57
2022/02/28 00:44:22;;;;;;;5.30;1.50;;;;;;;4.81;44.28;101522.54;117332;1186;23970;-57
2022/02/28 00:46:50;;;;;;;2.10;0.90;;;;;;;4.82;44.32;101518.56;117329;1186;23894;-56
2022/02/28 00:49:18;;;;;;;3.10;1.40;;;;;;;4.81;44.37;101518.52;117313;1186;23436;-52
2022/02/28 00:51:46;;;;;;;3.40;1.40;;;;;;;4.81;44.53;101516.61;117364;1187;22278;-53
2022/02/28 00:54:14;;;;;;;2.70;1.50;;;;;;;4.82;44.33;101510.19;117402;1184;23594;-57
2022/02/28 00:56:43;;;;;;;3.80;1.40;;;;;;;4.82;44.43;101509.86;117348;1183;22947;-56
2022/02/28 00:59:11;;;;;;;2.80;1.10;;;;;;;4.79;44.38;101506.49;117400;1182;23570;-53
2022/02/28 01:01:39;;;;;;;2.90;1.40;;;;;;;4.81;44.38;101497.30;117379;1183;23431;-57
2022/02/28 01:04:08;;;;;;;3.50;1.30;;;;;;;4.79;44.41;101493.25;117298;1182;23671;-52
2022/02/28 01:06:36;;;;;;;3.30;1.30;;;;;;;4.77;44.44;101492.15;117318;1183;24166;-53
2022/02/28 01:09:04;;;;;;;3.90;1.50;;;;;;;4.75;44.37;101488.80;117247;1186;23459;-53
2022/02/28 01:11:33;;;;;;;4.00;1.30;;;;;;;4.75;44.38;101487.91;117338;1185;26351;-53
2022/02/28 01:14:01;;;;;;;4.00;1.30;;;;;;;4.73;44.40;101486.63;117356;1186;23462;-53
2022/02/28 01:16:30;;;;;;;2.20;1.30;;;;;;;4.74;44.33;101489.29;117404;1185;21859;-52
2022/02/28 01:18:58;;;;;;;3.60;1.50;;;;;;;4.71;44.41;101487.63;117390;1185;21896;-53
2022/02/28 01:21:26;;;;;;;3.90;1.60;;;;;;;4.71;44.54;101488.14;117267;1186;23594;-56
2022/02/28 01:23:54;;;;;;;3.00;1.60;;;;;;;4.71;44.24;101484.65;117319;1181;24152;-53
2022/02/28 01:26:23;;;;;;;3.60;1.70;;;;;;;4.71;44.26;101479.64;117372;1185;22238;-57
2022/02/28 01:28:51;;;;;;;7.80;1.60;;;;;;;4.72;44.44;101478.44;117296;1182;22658;-53
2022/02/28 01:31:19;;;;;;;3.90;1.80;;;;;;;4.70;44.48;101473.86;117338;1181;21992;-57
2022/02/28 01:33:47;;;;;;;6.30;2.00;;;;;;;4.68;44.37;101474.13;117314;1182;22390;-53
2022/02/28 01:36:15;;;;;;;5.20;2.00;;;;;;;4.67;44.46;101466.80;117340;1182;24218;-53
2022/02/28 01:38:43;;;;;;;4.90;2.00;;;;;;;4.65;44.36;101466.73;117304;1183;23434;-56
2022/02/28 01:41:11;;;;;;;7.60;2.10;;;;;;;4.63;44.29;101460.43;117331;1183;23491;-57
2022/02/28 01:43:40;;;;;;;4.90;1.90;;;;;;;4.60;44.33;101462.29;117348;1186;23637;-53
2022/02/28 01:46:08;;;;;;;4.20;1.70;;;;;;;4.54;44.38;101463.13;117299;1186;23429;-57
2022/02/28 01:48:36;;;;;;;4.20;1.70;;;;;;;4.50;44.37;101457.77;117303;1183;23444;-53
2022/02/28 01:51:04;;;;;;;4.30;1.40;;;;;;;4.46;44.27;101457.85;117317;1186;21978;-57
2022/02/28 01:53:32;;;;;;;2.60;1.20;;;;;;;4.42;44.27;101455.66;117319;1182;23439;-53
2022/02/28 01:56:00;;;;;;;3.80;1.50;;;;;;;4.39;44.35;101457.31;117167;1186;23496;-57
2022/02/28 01:58:35;;;;;;;3.50;1.70;;;;;;;4.39;44.36;101457.13;117391;1185;22774;-53
2022/02/28 02:01:06;;;;;;;5.10;1.40;;;;;;;4.40;44.50;101457.67;117316;1182;23707;-58
2022/02/28 02:03:35;;;;;;;3.10;1.60;;;;;;;4.41;44.35;101455.62;117321;1186;23462;-54
2022/02/28 02:06:09;;;;;;;3.90;1.70;;;;;;;4.41;44.47;101455.61;117345;1183;24273;-53
2022/02/28 02:08:38;;;;;;;3.30;1.40;;;;;;;4.42;44.38;101452.68;117363;1185;21857;-53
2022/02/28 02:11:06;;;;;;;5.50;1.30;;;;;;;4.45;44.48;101451.89;117321;1185;21855;-52
2022/02/28 02:13:35;;;;;;;5.10;1.60;;;;;;;4.49;44.54;101451.14;117364;1185;23563;-57
2022/02/28 02:16:05;;;;;;;3.30;1.80;;;;;;;4.53;44.54;101453.53;117322;1175;22641;-57
2022/02/28 02:18:34;;;;;;;4.30;1.50;;;;;;;4.56;44.72;101452.43;117332;1183;21879;-52
2022/02/28 02:21:02;;;;;;;3.50;1.40;;;;;;;4.59;44.69;101451.99;117317;1179;23569;-57
2022/02/28 02:23:31;;;;;;;2.90;1.40;;;;;;;4.62;44.47;101449.63;117353;1186;23612;-57
2022/02/28 02:25:59;;;;;;;5.00;1.60;;;;;;;4.63;44.84;101448.98;117345;1186;21853;-52
2022/02/28 02:28:27;;;;;;;3.70;1.80;;;;;;;4.63;44.60;101448.27;117337;1182;22655;-57
2022/02/28 02:30:56;;;;;;;4.30;1.80;;;;;;;4.64;44.68;101447.08;117260;1186;21916;-52
2022/02/28 02:33:25;;;;;;;3.50;1.50;;;;;;;4.66;44.89;101447.30;117317;1186;21957;-54
2022/02/28 02:35:55;;;;;;;4.50;1.90;;;;;;;4.67;44.50;101444.89;117366;1186;23567;-52
2022/02/28 02:38:23;;;;;;;4.40;1.80;;;;;;;4.68;44.65;101437.80;117341;1185;22965;-52
2022/02/28 02:40:52;;;;;;;5.30;1.90;;;;;;;4.67;44.68;101438.80;117322;1185;23448;-57
2022/02/28 02:43:20;;;;;;;4.60;1.80;;;;;;;4.66;44.64;101437.56;117366;1185;23465;-53
2022/02/28 02:45:48;;;;;;;4.00;1.70;;;;;;;4.66;44.64;101440.70;117440;1183;24404;-53
2022/02/28 02:48:19;;;;;;;3.20;1.80;;;;;;;4.67;44.83;101436.91;117299;1181;22911;-57
2022/02/28 02:50:47;;;;;;;4.40;1.80;;;;;;;4.69;44.65;101436.95;117255;1185;21857;-58
2022/02/28 02:53:17;;;;;;;4.30;1.90;;;;;;;4.69;44.74;101434.88;117280;1184;23945;-57
2022/02/28 02:55:45;;;;;;;5.70;1.60;;;;;;;4.69;44.57;101432.62;117290;1185;23512;-53
2022/02/28 02:58:14;;;;;;;4.40;2.00;;;;;;;4.69;44.92;101433.64;117353;1182;23593;-53
2022/02/28 03:00:43;;;;;;;4.60;1.90;;;;;;;4.69;44.76;101423.91;117342;1186;22947;-53
2022/02/28 03:03:14;;;;;;;6.00;2.10;;;;;;;4.68;44.51;101428.05;117271;1183;22916;-54
2022/02/28 03:05:42;;;;;;;4.60;1.90;;;;;;;4.68;44.64;101429.96;117318;1186;21974;-53
2022/02/28 03:08:11;;;;;;;3.90;1.90;;;;;;;4.67;44.63;101428.91;117306;1183;23564;-57
2022/02/28 03:10:39;;;;;;;4.50;2.10;;;;;;;4.67;44.58;101430.64;117295;1183;24156;-54
2022/02/28 03:13:07;;;;;;;5.90;2.60;;;;;;;4.67;44.80;101430.81;117325;1185;23488;-58
2022/02/28 03:15:36;;;;;;;7.10;1.90;;;;;;;4.66;44.92;101431.66;117349;1185;21894;-58
2022/02/28 03:18:04;;;;;;;4.80;2.00;;;;;;;4.66;44.69;101428.71;117294;1186;21849;-58
2022/02/28 03:20:32;;;;;;;9.40;2.00;;;;;;;4.67;44.95;101425.77;117368;1183;21906;-58
2022/02/28 03:23:00;;;;;;;4.60;1.90;;;;;;;4.66;44.76;101421.73;117293;1182;22668;-55
2022/02/28 03:25:28;;;;;;;3.60;1.70;;;;;;;4.67;44.88;101423.34;117267;1183;23550;-58
2022/02/28 03:27:56;;;;;;;3.20;1.80;;;;;;;4.68;44.94;101424.07;117341;1185;23458;-53
2022/02/28 03:30:27;;;;;;;4.00;1.90;;;;;;;4.70;44.72;101424.83;117432;1184;23666;-58
2022/02/28 03:32:56;;;;;;;5.70;2.40;;;;;;;4.70;44.66;101426.55;117276;1183;23435;-58
2022/02/28 03:35:24;;;;;;;3.70;2.00;;;;;;;4.70;45.03;101431.60;117306;1182;23563;-51
2022/02/28 03:37:52;;;;;;;5.30;2.30;;;;;;;4.75;44.80;101430.70;117359;1183;22898;-56
2022/02/28 03:40:20;;;;;;;6.20;2.10;;;;;;;4.79;44.78;101426.45;117323;1183;22160;-55
2022/02/28 03:42:48;;;;;;;4.30;1.90;;;;;;;4.78;44.95;101425.21;117260;1185;23563;-52
2022/02/28 03:45:18;;;;;;;4.50;2.00;;;;;;;4.77;45.02;101424.52;117767;1182;23562;-52
2022/02/28 03:47:46;;;;;;;5.00;2.50;;;;;;;4.77;44.73;101419.63;117419;1185;23632;-52
2022/02/28 03:50:15;;;;;;;6.00;2.20;;;;;;;4.77;44.93;101422.95;117298;1183;22911;-52
2022/02/28 03:52:43;;;;;;;5.60;2.50;;;;;;;4.81;45.06;101420.60;117382;1185;23439;-52
2022/02/28 03:55:11;;;;;;;7.30;2.70;;;;;;;4.83;44.91;101427.46;117373;1183;23449;-57
2022/02/28 03:57:39;;;;;;;4.70;2.10;;;;;;;4.84;44.78;101424.52;117328;1183;24176;-56
2022/02/28 04:00:08;;;;;;;5.10;2.10;;;;;;;4.86;44.83;101427.86;117316;1185;24201;-54
2022/02/28 04:02:37;;;;;;;7.40;2.30;;;;;;;4.88;44.90;101424.44;117364;1185;22911;-56
2022/02/28 04:05:05;;;;;;;4.40;1.60;;;;;;;4.90;44.81;101427.13;117353;1176;23659;-52
2022/02/28 04:07:35;;;;;;;4.20;2.10;;;;;;;4.91;45.12;101424.55;117332;1186;24308;-53
2022/02/28 04:10:05;;;;;;;4.90;2.20;;;;;;;4.90;44.95;101428.68;117389;1182;21842;-57
2022/02/28 04:12:45;;;;;;;3.70;2.00;;;;;;;4.86;44.91;101425.44;117224;1182;24292;-58
2022/02/28 04:15:13;;;;;;;4.00;2.10;;;;;;;4.84;44.95;101430.45;117537;1176;24844;-58
2022/02/28 04:17:42;;;;;;;5.70;2.20;;;;;;;4.79;44.98;101428.89;117365;1182;23655;-57
2022/02/28 04:20:11;;;;;;;4.20;1.80;;;;;;;4.76;44.79;101425.34;117284;1185;23526;-57
2022/02/28 04:22:42;;;;;;;4.70;2.60;;;;;;;4.74;45.06;101423.04;117344;1183;21847;-53
2022/02/28 04:25:10;;;;;;;8.10;2.80;;;;;;;4.74;44.91;101423.73;117308;1183;22310;-53
2022/02/28 04:27:44;;;;;;;4.40;2.20;;;;;;;4.77;45.09;101425.02;117297;1186;23658;-53
2022/02/28 04:30:12;;;;;;;7.70;2.70;;;;;;;4.75;45.09;101427.41;117322;1185;24271;-56
2022/02/28 04:32:41;;;;;;;12.90;2.40;;;;;;;4.73;44.90;101428.74;117319;1185;24289;-53
2022/02/28 04:35:10;;;;;;;6.10;2.70;;;;;;;4.70;44.95;101432.45;117362;1182;22926;-57
2022/02/28 04:37:38;;;;;;;5.70;2.60;;;;;;;4.67;45.17;101432.38;117354;1183;24256;-58
2022/02/28 04:40:07;;;;;;;6.60;2.50;;;;;;;4.66;45.10;101434.26;117087;1186;21858;-57
2022/02/28 04:42:35;;;;;;;4.50;2.20;;;;;;;4.64;45.03;101435.77;117292;1182;23558;-57
2022/02/28 04:45:05;;;;;;;5.70;3.30;;;;;;;4.60;44.85;101438.11;117364;1183;22909;-53
2022/02/28 04:47:34;;;;;;;6.70;2.60;;;;;;;4.54;44.92;101440.89;117296;1182;23609;-53
2022/02/28 04:50:03;;;;;;;6.60;2.40;;;;;;;4.51;44.88;101442.69;117342;1182;23490;-52
2022/02/28 04:52:32;;;;;;;4.70;2.70;;;;;;;4.49;44.99;101448.02;117304;1181;22910;-52
2022/02/28 04:55:00;;;;;;;8.00;3.00;;;;;;;4.51;44.87;101451.21;117314;1182;21856;-56
2022/02/28 04:57:29;;;;;;;6.20;2.60;;;;;;;4.49;44.85;101454.44;117350;1185;23556;-58
2022/02/28 04:59:57;;;;;;;5.00;2.40;;;;;;;4.49;45.17;101453.60;117149;1185;22090;-53
2022/02/28 05:02:25;;;;;;;8.40;2.70;;;;;;;4.49;45.14;101455.68;117344;1182;23482;-52
2022/02/28 05:04:56;;;;;;;5.80;2.50;;;;;;;4.48;45.19;101453.55;117300;1182;23539;-58
2022/02/28 05:07:25;;;;;;;5.80;3.10;;;;;;;4.47;45.09;101457.52;117310;1185;21854;-57
2022/02/28 05:09:53;;;;;;;6.10;3.10;;;;;;;4.44;45.17;101465.26;117291;1183;23588;-57
2022/02/28 05:12:21;;;;;;;7.50;3.80;;;;;;;4.43;44.88;101467.48;117275;1183;21857;-52
2022/02/28 05:14:49;;;;;;;7.50;2.70;;;;;;;4.42;44.94;101471.29;117359;1182;21884;-53
2022/02/28 05:17:18;;;;;;;5.60;3.40;;;;;;;4.42;45.00;101474.75;117298;1185;24188;-57
2022/02/28 05:19:46;;;;;;;18.00;4.30;;;;;;;4.48;45.29;101476.50;117452;1185;24146;-57
2022/02/28 05:22:14;;;;;;;11.60;3.60;;;;;;;4.53;45.25;101478.40;117298;1181;23470;-53
2022/02/28 05:24:42;;;;;;;8.60;3.80;;;;;;;4.57;45.55;101481.82;117349;1183;24159;-54
2022/02/28 05:27:11;;;;;;;11.10;3.80;;;;;;;4.58;45.45;101478.54;117364;1184;21940;-52
2022/02/28 05:29:39;;;;;;;8.10;3.50;;;;;;;4.57;45.55;101479.73;117318;1185;21876;-53
2022/02/28 05:32:08;;;;;;;7.90;3.70;;;;;;;4.57;45.33;101482.16;117343;1185;23633;-56
2022/02/28 05:34:36;;;;;;;11.20;3.90;;;;;;;4.58;45.33;101479.93;117554;1185;23561;-57
2022/02/28 05:37:04;;;;;;;8.80;3.70;;;;;;;4.62;45.48;101481.97;117332;1180;21863;-57
2022/02/28 05:39:33;;;;;;;5.70;3.60;;;;;;;4.65;45.55;101480.64;117264;1183;22558;-56
2022/02/28 05:42:01;;;;;;;9.30;3.90;;;;;;;4.67;45.53;101482.81;117213;1183;21858;-57
2022/02/28 05:44:30;;;;;;;9.80;4.60;;;;;;;4.70;45.42;101482.39;119322;1185;22191;-55
2022/02/28 05:46:58;;;;;;;7.80;4.10;;;;;;;4.74;45.61;101487.54;117247;1185;22893;-54
2022/02/28 05:49:26;;;;;;;7.70;4.40;;;;;;;4.78;45.45;101484.88;119351;1181;21820;-55
2022/02/28 05:51:54;;;;;;;8.80;4.50;;;;;;;4.81;45.27;101488.09;117350;1186;21879;-54
2022/02/28 05:54:22;;;;;;;9.00;5.00;;;;;;;4.85;45.43;101492.38;117767;1183;21894;-57
2022/02/28 05:56:51;;;;;;;6.90;3.80;;;;;;;4.88;45.47;101485.52;117317;1183;21864;-56
2022/02/28 05:59:19;;;;;;;8.30;4.40;;;;;;;4.96;45.45;101489.39;117292;1182;21868;-57
2022/02/28 06:01:47;;;;;;;7.90;4.40;;;;;;;5.02;45.44;101483.44;117360;1180;21854;-55
2022/02/28 06:04:15;;;;;;;9.80;4.80;;;;;;;5.04;45.54;101487.71;117299;1181;22475;-57
2022/02/28 06:06:48;;;;;;;8.30;3.80;;;;;;;5.00;45.61;101490.52;117301;1181;21888;-57
2022/02/28 06:09:16;;;;;;;7.20;4.20;;;;;;;4.99;45.65;101491.57;117420;1183;21899;-57
2022/02/28 06:11:52;;;;;;;7.50;4.00;;;;;;;5.01;45.71;101486.37;117557;1184;22724;-53
2022/02/28 06:14:21;;;;;;;7.90;4.60;;;;;;;5.01;45.77;101491.11;117332;1182;21858;-57
2022/02/28 06:16:50;;;;;;;6.90;4.10;;;;;;;5.04;45.66;101487.69;117343;1183;21857;-53
2022/02/28 06:19:18;;;;;;;18.90;5.10;;;;;;;5.07;45.68;101490.39;117365;1185;23653;-57
2022/02/28 06:21:46;;;;;;;17.40;5.10;;;;;;;5.08;45.74;101497.21;117265;1182;21859;-53
2022/02/28 06:24:14;;;;;;;7.50;4.40;;;;;;;5.11;45.64;101497.27;117314;1185;23115;-56
2022/02/28 06:26:42;;;;;;;15.90;9.80;;;;;;;5.16;45.70;101496.89;117352;1183;21857;-53
2022/02/28 06:29:10;;;;;;;11.20;6.40;;;;;;;5.19;45.85;101498.38;117334;1182;21898;-54
2022/02/28 06:31:43;;;;;;;7.80;5.10;;;;;;;5.20;45.64;101495.81;117479;1182;22083;-54
2022/02/28 06:34:12;;;;;;;11.50;7.00;;;;;;;5.22;45.80;101494.11;117281;1186;21867;-53
2022/02/28 06:36:40;;;;;;;9.30;6.10;;;;;;;5.28;45.88;101495.14;117426;1185;22047;-56
2022/02/28 06:39:15;;;;;;;7.60;4.80;;;;;;;5.38;45.81;101491.05;117349;1185;21859;-53
2022/02/28 06:41:43;;;;;;;25.20;13.10;;;;;;;5.44;45.86;101493.30;117302;1183;21850;-52
2022/02/28 06:44:11;;;;;;;19.40;13.80;;;;;;;5.46;46.06;101495.47;117273;1185;22832;-53
2022/02/28 06:46:40;;;;;;;15.80;11.20;;;;;;;5.52;45.85;101496.84;117275;1185;24239;-55
2022/02/28 06:49:08;;;;;;;19.10;13.50;;;;;;;5.59;45.83;101498.76;117368;1183;24249;-53
2022/02/28 06:51:37;;;;;;;13.00;8.80;;;;;;;5.69;45.78;101499.17;117363;1184;21864;-56
2022/02/28 06:54:06;;;;;;;12.10;8.80;;;;;;;5.75;45.70;101496.73;117343;1183;23566;-53
2022/02/28 06:56:34;;;;;;;12.40;6.80;;;;;;;5.80;46.04;101498.24;117250;1184;23531;-54
2022/02/28 06:59:02;;;;;;;7.80;5.10;;;;;;;5.95;45.63;101499.99;117382;1183;23614;-56
2022/02/28 07:01:35;;;;;;;17.50;5.10;;;;;;;6.03;45.53;101498.98;117399;1183;22734;-56
2022/02/28 07:04:03;;;;;;;250.20;23.20;;;;;;;6.09;45.50;101497.60;117340;1182;21855;-53
2022/02/28 07:06:34;;;;;;;138.80;34.60;;;;;;;6.09;45.98;101504.91;117335;1186;22929;-56
2022/02/28 07:09:04;;;;;;;22.00;9.90;;;;;;;6.05;46.15;101506.21;117288;1185;21828;-53
2022/02/28 07:11:33;;;;;;;426.50;37.00;;;;;;;6.16;45.91;101513.27;118322;1182;23664;-54
2022/02/28 07:14:01;;;;;;;9.70;3.50;;;;;;;6.24;45.87;101507.69;117104;1186;21881;-56
2022/02/28 07:16:45;;;;;;;6.80;3.30;;;;;;;6.26;45.93;101511.40;117329;1185;21861;-55
2022/02/28 07:19:13;;;;;;;6.20;4.20;;;;;;;6.24;45.82;101512.59;117413;1185;21896;-53
2022/02/28 07:21:41;;;;;;;6.90;3.70;;;;;;;6.24;46.04;101511.54;117267;1182;23426;-56
2022/02/28 07:24:18;;;;;;;10.70;3.50;;;;;;;6.25;45.77;101515.04;117340;1185;23531;-53
2022/02/28 07:26:46;;;;;;;6.20;3.60;;;;;;;6.25;45.62;101513.81;117338;1182;21902;-54
2022/02/28 07:29:14;;;;;;;8.80;4.30;;;;;;;6.25;45.64;101515.73;117370;1182;21864;-53
2022/02/28 07:31:42;;;;;;;12.80;4.10;;;;;;;6.25;45.73;101510.34;117425;1185;23462;-56
2022/02/28 07:34:11;;;;;;;6.60;4.20;;;;;;;6.28;45.99;101505.52;117301;1180;23500;-56
2022/02/28 07:36:39;;;;;;;8.40;3.60;;;;;;;6.30;45.87;101506.98;117471;1183;22906;-54
2022/02/28 07:39:08;;;;;;;6.10;3.70;;;;;;;6.35;45.69;101501.68;117360;1184;21855;-54
2022/02/28 07:41:37;;;;;;;10.40;3.90;;;;;;;6.42;45.85;101504.09;117362;1185;22173;-53
2022/02/28 07:44:06;;;;;;;7.30;3.20;;;;;;;6.49;45.63;101501.30;117208;1183;22403;-53
2022/02/28 07:46:34;;;;;;;5.10;3.30;;;;;;;6.59;45.70;101502.73;117261;1185;21842;-57
2022/02/28 07:49:03;;;;;;;5.30;3.00;;;;;;;6.66;46.03;101503.06;117325;1185;21864;-57
2022/02/28 07:51:32;;;;;;;5.90;3.80;;;;;;;6.76;46.02;101497.51;117325;1183;21847;-57
2022/02/28 07:54:00;;;;;;;6.70;4.40;;;;;;;6.83;46.02;101497.84;117425;1184;21860;-57
2022/02/28 07:56:29;;;;;;;8.40;5.40;;;;;;;6.90;45.84;101501.66;117312;1183;22019;-55
2022/02/28 07:58:57;;;;;;;5.50;4.40;;;;;;;6.97;46.00;101497.44;117249;1182;24194;-57
2022/02/28 08:01:26;;;;;;;7.40;5.00;;;;;;;7.04;45.98;101501.08;117248;1183;21855;-55
2022/02/28 08:03:55;;;;;;;8.10;4.20;;;;;;;7.08;46.04;101501.66;117302;1182;22912;-55
2022/02/28 08:06:24;;;;;;;6.00;3.80;;;;;;;7.11;45.85;101501.90;117268;1185;21883;-55
2022/02/28 08:08:52;;;;;;;7.30;4.00;;;;;;;7.13;46.04;101499.67;118085;1185;23434;-56
2022/02/28 08:11:21;;;;;;;5.90;3.50;;;;;;;7.14;46.08;101500.40;119384;1183;21835;-56
2022/02/28 08:13:56;;;;;;;6.90;3.60;;;;;;;7.13;45.86;101499.66;118642;1182;22631;-54
2022/02/28 08:16:24;;;;;;;8.30;4.60;;;;;;;7.12;45.86;101494.77;117819;1183;21858;-54
2022/02/28 08:18:54;;;;;;;7.50;3.60;;;;;;;7.13;45.71;101495.13;117442;1185;22952;-54
2022/02/28 08:21:23;;;;;;;9.40;3.90;;;;;;;7.17;45.75;101494.16;117319;1185;21880;-54
2022/02/28 08:23:51;;;;;;;7.40;4.40;;;;;;;7.20;45.81;101491.77;117303;1183;21972;-57
2022/02/28 08:26:19;;;;;;;7.10;3.40;;;;;;;7.22;45.82;101492.52;117259;1183;23500;-56
2022/02/28 08:28:48;;;;;;;7.40;3.50;;;;;;;7.28;46.04;101483.55;117299;1183;22824;-54
2022/02/28 08:31:16;;;;;;;4.70;2.90;;;;;;;7.35;45.91;101490.15;117347;1183;21866;-54
2022/02/28 08:33:45;;;;;;;5.70;3.80;;;;;;;7.43;45.99;101493.26;117316;1183;23432;-54
2022/02/28 08:36:14;;;;;;;6.50;4.10;;;;;;;7.49;45.94;101491.45;117061;1184;22984;-54
2022/02/28 08:38:42;;;;;;;5.70;4.10;;;;;;;7.56;46.11;101493.83;117311;1185;21867;-54
2022/02/28 08:41:11;;;;;;;7.00;4.80;;;;;;;7.62;45.75;101490.27;117308;1183;21864;-55
2022/02/28 08:43:39;;;;;;;7.70;4.30;;;;;;;7.67;45.82;101489.67;117263;1183;23700;-56
2022/02/28 08:46:08;;;;;;;7.50;3.90;;;;;;;7.71;45.79;101492.88;117317;1183;21861;-56
2022/02/28 08:48:43;;;;;;;6.60;4.50;;;;;;;7.71;45.66;101491.66;117326;1185;22630;-55
2022/02/28 08:51:15;;;;;;;8.10;4.30;;;;;;;7.73;45.70;101483.14;117347;1185;21860;-56
2022/02/28 08:53:44;;;;;;;8.10;3.90;;;;;;;7.73;45.66;101478.94;117374;1182;23507;-57
2022/02/28 08:56:12;;;;;;;9.40;4.70;;;;;;;7.74;45.68;101477.91;117225;1185;22649;-55
2022/02/28 08:58:40;;;;;;;5.80;3.90;;;;;;;7.74;45.51;101482.96;117339;1183;23462;-55
2022/02/28 09:01:09;;;;;;;10.00;4.80;;;;;;;7.73;45.55;101478.08;117349;1183;23495;-54
2022/02/28 09:03:39;;;;;;;13.60;7.90;;;;;;;7.74;45.54;101476.68;117229;1181;21908;-56
2022/02/28 09:06:08;;;;;;;7.40;5.30;;;;;;;7.73;45.54;101470.73;117339;1182;21857;-56
2022/02/28 09:08:38;;;;;;;7.20;5.00;;;;;;;7.69;45.56;101468.21;117451;1182;23535;-55
2022/02/28 09:11:06;;;;;;;9.00;4.60;;;;;;;7.63;45.40;101470.90;117240;1185;22932;-55
2022/02/28 09:13:35;;;;;;;7.00;4.30;;;;;;;7.55;45.28;101476.17;117424;1185;23481;-57
2022/02/28 09:16:04;;;;;;;7.70;4.60;;;;;;;7.50;45.37;101468.23;117297;1185;23435;-57
2022/02/28 09:18:33;;;;;;;7.30;5.20;;;;;;;7.47;45.41;101465.55;117338;1183;22909;-55
2022/02/28 09:21:03;;;;;;;8.90;4.90;;;;;;;7.43;45.57;101460.77;117354;1185;21864;-57
2022/02/28 09:23:32;;;;;;;19.20;15.80;;;;;;;7.40;45.52;101461.94;117334;1185;23435;-55
2022/02/28 09:26:04;;;;;;;18.30;12.10;;;;;;;7.41;45.37;101461.27;117238;1181;21880;-54
2022/02/28 09:28:36;;;;;;;17.20;11.20;;;;;;;7.45;45.48;101454.70;117382;1181;21973;-58
2022/02/28 09:31:05;;;;;;;15.10;11.00;;;;;;;7.48;45.64;101446.37;117307;1185;22912;-56
2022/02/28 09:33:34;;;;;;;9.10;6.70;;;;;;;7.48;45.46;101442.02;117513;1182;21857;-56
2022/02/28 09:36:04;;;;;;;8.60;5.70;;;;;;;7.46;45.44;101441.27;117622;1182;23538;-57
2022/02/28 09:38:32;;;;;;;8.10;5.50;;;;;;;7.49;45.45;101439.05;117274;1176;21860;-57
2022/02/28 09:41:21;;;;;;;6.70;4.50;;;;;;;7.52;45.49;101432.64;117317;1182;22728;-56
2022/02/28 09:43:49;;;;;;;7.80;5.10;;;;;;;7.55;45.69;101432.86;117036;1184;21855;-54
2022/02/28 09:46:19;;;;;;;9.30;5.30;;;;;;;7.55;45.41;101423.78;117308;1185;21863;-55
2022/02/28 09:49:04;;;;;;;7.40;4.30;;;;;;;7.47;45.20;101418.05;117256;1185;23510;-54
2022/02/28 09:51:33;;;;;;;11.80;5.30;;;;;;;7.40;45.30;101417.94;117338;1182;21866;-57
2022/02/28 09:54:02;;;;;;;9.30;4.50;;;;;;;7.41;45.47;101410.09;117423;1185;23529;-57
2022/02/28 09:56:33;;;;;;;8.50;4.40;;;;;;;7.41;45.26;101406.42;117486;1185;23448;-57
2022/02/28 09:59:01;;;;;;;6.20;3.90;;;;;;;7.39;45.26;101403.95;117391;1185;21857;-55
2022/02/28 10:01:50;;;;;;;6.20;3.80;;;;;;;7.36;45.28;101405.13;117277;1182;21851;-57
2022/02/28 10:04:18;;;;;;;8.10;3.60;;;;;;;7.37;45.46;101401.83;117247;1185;21868;-57
2022/02/28 10:06:48;;;;;;;7.60;3.80;;;;;;;7.42;45.53;101402.60;117332;1185;23458;-57
2022/02/28 10:09:19;;;;;;;6.40;3.70;;;;;;;7.45;45.45;101393.58;117351;1184;23445;-57
2022/02/28 10:12:07;;;;;;;5.10;3.40;;;;;;;7.51;45.27;101387.21;117313;1185;21967;-57
2022/02/28 10:14:43;;;;;;;6.70;4.40;;;;;;;7.54;45.45;101382.71;117036;1182;21903;-55
2022/02/28 10:17:13;;;;;;;6.50;3.60;;;;;;;7.55;45.07;101379.23;117504;1185;22887;-55
2022/02/28 10:19:57;;;;;;;9.00;4.80;;;;;;;7.56;45.35;101380.13;117286;1181;22628;-54
2022/02/28 10:22:26;;;;;;;10.40;5.50;;;;;;;7.59;45.27;101382.28;117296;1181;21861;-58
2022/02/28 10:24:56;;;;;;;7.50;5.40;;;;;;;7.64;45.33;101375.21;117102;1185;21867;-57
2022/02/28 10:27:24;;;;;;;8.10;5.50;;;;;;;7.77;45.20;101377.66;117413;1184;21857;-56
2022/02/28 10:29:53;;;;;;;12.30;8.20;;;;;;;7.90;45.14;101374.20;117410;1182;23440;-55
2022/02/28 10:32:25;;;;;;;11.60;7.70;;;;;;;7.97;45.01;101369.73;117326;1181;22918;-54
2022/02/28 10:38:14;;;;;;;17.40;9.80;;;;;;;8.01;45.24;101360.17;117300;1179;21859;-55
2022/02/28 10:40:44;;;;;;;7.80;4.90;;;;;;;8.00;45.20;101360.88;117336;1185;22902;-57
2022/02/28 10:43:35;;;;;;;12.10;7.00;;;;;;;8.04;45.30;101359.01;117407;1184;22807;-58
2022/02/28 10:46:24;;;;;;;7.10;4.10;;;;;;;8.11;45.13;101360.85;117323;1185;21999;-56
2022/02/28 10:49:04;;;;;;;1657.40;867.90;;;;;;;8.16;45.21;101354.63;117303;1182;21860;-57
2022/02/28 10:51:54;;;;;;;354.60;186.60;;;;;;;8.29;45.66;101352.52;117340;1181;21924;-57
2022/02/28 10:54:32;;;;;;;41.90;24.60;;;;;;;8.48;45.40;101349.80;117324;1182;21861;-57
2022/02/28 10:57:21;;;;;;;24.00;14.50;;;;;;;8.53;45.20;101346.02;117300;1185;22912;-55
2022/02/28 10:59:50;;;;;;;10.60;5.60;;;;;;;8.57;45.19;101340.81;117295;1183;21867;-58
2022/02/28 11:02:34;;;;;;;10.80;4.60;;;;;;;8.57;45.27;101332.44;117311;1181;21867;-56
2022/02/28 11:05:20;;;;;;;5.40;3.20;;;;;;;8.53;45.31;101331.51;117353;1179;21865;-56
2022/02/28 11:07:53;;;;;;;6.80;3.00;;;;;;;8.50;45.27;101328.31;117326;1182;21883;-56
2022/02/28 11:10:36;;;;;;;5.20;2.60;;;;;;;8.50;45.22;101332.34;117264;1182;21860;-56
2022/02/28 11:13:07;;;;;;;10.40;3.70;;;;;;;8.49;45.17;101327.09;117089;1182;23529;-55
2022/02/28 11:15:38;;;;;;;5.20;2.70;;;;;;;8.53;45.19;101327.13;117155;1183;21994;-55
2022/02/28 11:18:13;;;;;;;5.90;3.00;;;;;;;8.54;45.29;101328.89;117201;1181;21855;-55
2022/02/28 11:20:42;;;;;;;4.40;2.40;;;;;;;8.55;45.06;101324.52;117137;1184;22621;-57
2022/02/28 11:23:12;;;;;;;4.70;2.20;;;;;;;8.56;45.21;101321.91;117254;1185;24157;-56
2022/02/28 11:25:41;;;;;;;5.20;2.50;;;;;;;8.58;45.02;101320.36;117344;1185;21866;-57
2022/02/28 11:28:10;;;;;;;5.80;2.30;;;;;;;8.59;45.07;101321.08;117109;1185;23647;-55
2022/02/28 11:30:44;;;;;;;4.90;2.30;;;;;;;8.60;45.01;101321.80;117137;1181;21861;-58
2022/02/28 11:33:14;;;;;;;6.40;2.90;;;;;;;8.65;45.07;101312.91;117346;1185;21860;-58
2022/02/28 11:35:50;;;;;;;5.70;2.40;;;;;;;8.70;44.93;101313.31;117384;1184;22627;-57
2022/02/28 11:38:25;;;;;;;4.10;2.60;;;;;;;8.73;44.74;101311.59;117284;1185;22870;-59
2022/02/28 11:40:57;;;;;;;4.20;2.40;;;;;;;8.75;44.80;101313.02;117310;1184;24139;-57